createdAt,value
2023-04-11T00:01:34.208Z,98454.59
2023-04-11T00:06:39.608Z,98445.84
2023-04-11T00:11:44.336Z,98444.38
2023-04-11T00:16:49.916Z,98430.59
2023-04-11T00:21:58.198Z,98429.63
2023-04-11T00:27:02.617Z,98421.84
2023-04-11T00:32:07.360Z,98417.34
2023-04-11T00:37:12.879Z,98409.31
2023-04-11T00:42:17.059Z,98397.06
2023-04-11T00:47:22.324Z,98385.44
2023-04-11T00:52:27.981Z,98383.84
2023-04-11T00:57:32.296Z,98388.75
2023-04-11T01:02:37.625Z,98383.16
2023-04-11T01:07:45.042Z,98381.53
2023-04-11T01:12:48.997Z,98368.72
2023-04-11T01:17:55.807Z,98370.09
2023-04-11T01:23:03.174Z,98359.19
2023-04-11T01:28:10.216Z,98358.66
2023-04-11T01:33:15.222Z,98346.81
2023-04-11T01:38:19.584Z,98354.06
2023-04-11T01:43:25.014Z,98338.84
2023-04-11T01:48:29.232Z,98335.84
2023-04-11T01:53:33.478Z,98329.84
2023-04-11T01:58:39.110Z,98324.94
2023-04-11T02:03:43.701Z,98318.81
2023-04-11T02:08:47.770Z,98316.22
2023-04-11T02:13:53.253Z,98297.56
2023-04-11T02:18:57.938Z,98296.38
2023-04-11T02:24:02.253Z,98283.03
2023-04-11T02:29:07.907Z,98277.06
2023-04-11T02:34:11.996Z,98271.34
2023-04-11T02:39:16.422Z,98270.94
2023-04-11T02:44:22.763Z,98269.75
2023-04-11T02:49:27.839Z,98263.06
2023-04-11T02:54:32.068Z,98256.16
2023-04-11T02:59:39.179Z,98249.06
2023-04-11T03:04:43.934Z,98246.06
2023-04-11T03:09:52.809Z,98238.47
2023-04-11T03:14:58.342Z,98244.59
2023-04-11T03:20:02.525Z,98244.47
2023-04-11T03:25:08.760Z,98249.53
2023-04-11T03:30:15.987Z,98248.03
2023-04-11T03:35:23.208Z,98247.22
2023-04-11T03:40:27.993Z,98230.63
2023-04-11T03:45:43.456Z,98218.38
2023-04-11T03:50:54.923Z,98211.88
2023-04-11T03:56:05.404Z,98201.94
2023-04-11T04:01:16.529Z,98200.72
2023-04-11T04:06:21.530Z,98198.00
2023-04-11T04:11:26.741Z,98189.69
2023-04-11T04:16:34.630Z,98183.59
2023-04-11T04:21:43.317Z,98181.09
2023-04-11T04:26:50.168Z,98179.59
2023-04-11T04:32:14.936Z,98184.22
2023-04-11T04:37:27.324Z,98174.13
2023-04-11T04:42:41.488Z,98165.84
2023-04-11T04:47:48.992Z,98166.34
2023-04-11T04:52:53.234Z,98167.06
2023-04-11T04:57:57.166Z,98162.41
2023-04-11T05:03:05.858Z,98153.88
2023-04-11T05:08:11.030Z,98143.31
2023-04-11T05:13:16.095Z,98132.06
2023-04-11T05:18:21.714Z,98121.56
2023-04-11T05:23:26.068Z,98113.50
2023-04-11T05:28:33.069Z,98110.53
2023-04-11T05:33:40.581Z,98105.91
2023-04-11T05:38:45.336Z,98084.59
2023-04-11T05:43:49.399Z,98085.34
2023-04-11T05:48:58.086Z,98075.25
2023-04-11T05:54:01.977Z,98067.56
2023-04-11T05:59:05.846Z,98068.84
2023-04-11T06:04:11.614Z,98070.44
2023-04-11T06:09:15.960Z,98069.91
2023-04-11T06:14:20.086Z,98061.81
2023-04-11T06:19:25.372Z,98052.91
2023-04-11T06:24:37.289Z,98052.88
2023-04-11T06:29:43.618Z,98057.91
2023-04-11T06:34:49.183Z,98057.88
2023-04-11T06:39:53.175Z,98041.59
2023-04-11T06:44:57.327Z,98031.44
2023-04-11T06:50:02.644Z,98024.97
2023-04-11T06:55:08.527Z,98021.59
2023-04-11T07:00:13.742Z,98024.41
2023-04-11T07:05:19.541Z,98016.47
2023-04-11T07:10:25.100Z,98015.25
2023-04-11T07:15:29.287Z,98015.41
2023-04-11T07:20:35.080Z,98024.97
2023-04-11T07:25:39.298Z,98023.44
2023-04-11T07:30:43.699Z,98011.22
2023-04-11T07:35:49.240Z,98005.09
2023-04-11T07:40:53.362Z,97985.09
2023-04-11T07:45:59.288Z,97971.25
2023-04-11T07:51:04.772Z,97948.13
2023-04-11T07:56:09.929Z,97927.47
2023-04-11T08:01:24.102Z,97943.41
2023-04-11T08:06:31.505Z,97931.50
2023-04-11T08:11:36.613Z,97929.75
2023-04-11T08:16:41.006Z,97916.47
2023-04-11T08:21:46.487Z,97918.59
2023-04-11T08:26:50.566Z,97911.19
2023-04-11T08:31:54.721Z,97908.19
2023-04-11T08:36:59.974Z,97901.59
2023-04-11T08:42:04.432Z,97889.94
2023-04-11T08:47:08.746Z,97882.50
2023-04-11T08:52:14.333Z,97877.63
2023-04-11T08:57:28.572Z,97867.94
2023-04-11T09:02:32.578Z,97858.84
2023-04-11T09:07:49.293Z,97858.63
2023-04-11T09:12:54.181Z,97847.66
2023-04-11T09:18:00.628Z,97838.91
2023-04-11T09:23:06.875Z,97831.88
2023-04-11T09:28:12.146Z,97806.50
2023-04-11T09:33:23.482Z,97817.38
2023-04-11T09:38:33.649Z,97819.31
2023-04-11T09:43:51.310Z,97815.28
2023-04-11T09:48:56.758Z,97801.19
2023-04-11T09:54:03.796Z,97801.22
2023-04-11T09:59:08.315Z,97798.34
2023-04-11T10:04:13.806Z,97790.03
2023-04-11T10:09:19.737Z,97780.88
2023-04-11T10:14:42.795Z,97783.97
2023-04-11T10:19:48.368Z,97772.28
2023-04-11T10:25:17.840Z,97768.25
2023-04-11T10:30:51.062Z,97757.13
2023-04-11T10:35:59.782Z,97752.22
2023-04-11T10:41:19.208Z,97755.91
2023-04-11T10:46:24.360Z,97738.69
2023-04-11T10:51:28.861Z,97741.91
2023-04-11T10:56:58.797Z,97730.00
2023-04-11T11:02:03.929Z,97728.09
2023-04-11T11:07:09.323Z,97725.41
2023-04-11T11:12:16.260Z,97721.78
2023-04-11T11:17:20.437Z,97715.63
2023-04-11T11:22:26.421Z,97717.19
2023-04-11T11:27:31.856Z,97719.25
2023-04-11T11:32:36.000Z,97709.59
2023-04-11T11:37:39.916Z,97709.25
2023-04-11T11:42:45.216Z,97708.00
2023-04-11T11:47:50.566Z,97718.56
2023-04-11T11:52:54.570Z,97709.34
2023-04-11T11:58:03.334Z,97715.56
2023-04-11T12:03:09.982Z,97704.25
2023-04-11T12:08:14.207Z,97714.13
2023-04-11T12:13:20.823Z,97704.88
2023-04-11T12:18:26.592Z,97710.41
2023-04-11T12:23:30.716Z,97691.28
2023-04-11T12:28:36.170Z,97703.97
2023-04-11T12:33:40.364Z,97699.84
2023-04-11T12:38:45.115Z,97692.94
2023-04-11T12:43:50.514Z,97690.34
2023-04-11T12:48:54.789Z,97686.66
2023-04-11T12:53:58.854Z,97672.41
2023-04-11T12:59:04.296Z,97664.63
2023-04-11T13:04:08.604Z,97660.88
2023-04-11T13:09:12.634Z,97654.06
2023-04-11T13:14:18.107Z,97662.84
2023-04-11T13:19:22.692Z,97653.97
2023-04-11T13:24:27.163Z,97660.94
2023-04-11T13:29:32.383Z,97648.50
2023-04-11T13:34:36.928Z,97645.41
2023-04-11T13:39:41.333Z,97638.59
2023-04-11T13:44:47.001Z,97638.69
2023-04-11T13:49:50.868Z,97630.88
2023-04-11T13:54:55.085Z,97617.81
2023-04-11T14:00:00.529Z,97617.25
2023-04-11T14:05:04.748Z,97615.00
2023-04-11T14:10:09.450Z,97605.13
2023-04-11T14:15:14.734Z,97600.00
2023-04-11T14:20:19.378Z,97587.50
2023-04-11T14:25:23.679Z,97586.75
2023-04-11T14:30:29.014Z,97579.00
2023-04-11T14:35:33.093Z,97576.25
2023-04-11T14:40:37.336Z,97564.06
2023-04-11T14:45:43.095Z,97566.81
2023-04-11T14:50:47.059Z,97555.78
2023-04-11T14:55:51.371Z,97553.44
2023-04-11T15:00:56.939Z,97551.38
2023-04-11T15:06:00.846Z,97557.44
2023-04-11T15:11:04.976Z,97553.28
2023-04-11T15:16:10.621Z,97547.47
2023-04-11T15:21:15.505Z,97543.22
2023-04-11T15:26:19.662Z,97567.59
2023-04-11T15:31:26.871Z,97568.84
2023-04-11T15:36:31.482Z,97597.94
2023-04-11T15:41:36.056Z,97590.47
2023-04-11T15:46:41.830Z,97601.69
2023-04-11T15:51:46.463Z,97585.16
2023-04-11T15:56:50.839Z,97597.84
2023-04-11T16:01:56.375Z,97608.22
2023-04-11T16:07:00.563Z,97618.31
2023-04-11T16:12:05.583Z,97610.19
2023-04-11T16:17:10.902Z,97612.75
2023-04-11T16:22:15.536Z,97611.75
2023-04-11T16:27:19.759Z,97624.63
2023-04-11T16:32:25.270Z,97641.59
2023-04-11T16:37:29.185Z,97635.63
2023-04-11T16:42:33.284Z,97633.44
2023-04-11T16:47:39.292Z,97637.50
2023-04-11T16:52:43.803Z,97656.47
2023-04-11T16:57:48.067Z,97652.09
2023-04-11T17:02:53.784Z,97664.25
2023-04-11T17:07:58.083Z,97665.31
2023-04-11T17:13:02.257Z,97653.34
2023-04-11T17:18:07.925Z,97652.00
2023-04-11T17:23:12.385Z,97649.22
2023-04-11T17:28:16.518Z,97652.66
2023-04-11T17:33:23.956Z,97653.34
2023-04-11T17:38:27.833Z,97661.38
2023-04-11T17:43:31.780Z,97674.34
2023-04-11T17:48:37.946Z,97684.25
2023-04-11T17:53:42.143Z,97685.63
2023-04-11T17:58:48.053Z,97676.41
2023-04-11T18:03:53.321Z,97680.63
2023-04-11T18:08:57.443Z,97682.25
2023-04-11T18:14:01.375Z,97696.69
2023-04-11T18:19:06.601Z,97702.19
2023-04-11T18:24:11.111Z,97704.53
2023-04-11T18:29:15.607Z,97702.75
2023-04-11T18:34:21.101Z,97703.59
2023-04-11T18:39:25.708Z,97714.44
2023-04-11T18:44:30.414Z,97724.00
2023-04-11T18:49:37.303Z,97736.16
2023-04-11T18:54:42.183Z,97726.13
2023-04-11T18:59:50.161Z,97730.97
2023-04-11T19:04:57.224Z,97737.31
2023-04-11T19:10:03.265Z,97732.41
2023-04-11T19:15:09.249Z,97741.19
2023-04-11T19:20:16.739Z,97738.25
2023-04-11T19:25:21.767Z,97740.03
2023-04-11T19:30:26.105Z,97738.72
2023-04-11T19:35:31.522Z,97733.00
2023-04-11T19:40:35.913Z,97737.41
2023-04-11T19:45:39.926Z,97737.06
2023-04-11T19:50:45.194Z,97733.00
2023-04-11T19:55:52.170Z,97738.50
2023-04-11T20:00:56.102Z,97736.78
2023-04-11T20:06:03.334Z,97729.78
2023-04-11T20:11:07.714Z,97732.09
2023-04-11T20:16:11.752Z,97749.78
2023-04-11T20:21:17.027Z,97750.25
2023-04-11T20:26:21.192Z,97747.66
2023-04-11T20:31:25.463Z,97749.13
2023-04-11T20:36:32.969Z,97745.09
2023-04-11T20:41:40.659Z,97743.94
2023-04-11T20:46:45.169Z,97738.94
2023-04-11T20:51:51.088Z,97743.28
2023-04-11T20:56:55.894Z,97750.91
2023-04-11T21:02:00.161Z,97748.00
2023-04-11T21:07:05.633Z,97740.88
2023-04-11T21:12:09.705Z,97743.94
2023-04-11T21:17:13.842Z,97749.97
2023-04-11T21:22:19.378Z,97747.53
2023-04-11T21:27:23.632Z,97744.78
2023-04-11T21:32:28.091Z,97756.59
2023-04-11T21:37:33.930Z,97754.00
2023-04-11T21:42:38.036Z,97760.81
2023-04-11T21:47:42.031Z,97750.59
2023-04-11T21:52:47.738Z,97755.16
2023-04-11T21:57:51.862Z,97753.88
2023-04-11T22:02:56.281Z,97755.63
2023-04-11T22:08:11.966Z,97744.13
2023-04-11T22:13:17.065Z,97750.44
2023-04-11T22:18:26.266Z,97746.22
2023-04-11T22:23:31.897Z,97754.50
2023-04-11T22:28:36.328Z,97753.53
2023-04-11T22:33:41.346Z,97745.09
2023-04-11T22:38:46.682Z,97746.88
2023-04-11T22:43:50.686Z,97748.31
2023-04-11T22:48:54.950Z,97737.78
2023-04-11T22:54:01.276Z,97743.66
2023-04-11T22:59:05.303Z,97734.88
2023-04-11T23:04:10.046Z,97734.88
2023-04-11T23:09:15.297Z,97736.53
2023-04-11T23:14:21.284Z,97739.63
2023-04-11T23:19:27.195Z,97730.03
2023-04-11T23:24:32.669Z,97743.03
2023-04-11T23:29:37.190Z,97742.38
2023-04-11T23:34:41.559Z,97739.97
2023-04-11T23:39:47.581Z,97738.19
2023-04-11T23:44:51.652Z,97738.69
2023-04-11T23:49:55.742Z,97733.00
2023-04-11T23:55:01.030Z,97729.59
